F/V Cote D'ambre — FPEY — position and weather

sailwx.info

Track history (hours):
 
Tides and Currents Weather Stations Pressure Air Temp Water Temp Dewpoint Dewpoint Depression Visibility Wind Speed Wind Dir Waves Ship Positions

F/V Cote D'ambre

Last reported at 2016-Jul-28 02:33 UTC. Time now 2016-Jul-28 02:55 UTC.
Position N 47°39' W 003°22'.

Length 16 m; draft 4 m.

Type: Fishing. MMSI: 227128800.

Date/timePositionNaut miles runAvg speedWind from/ knotsBaromVisibWave heightAir tempDewpointWater temp
2016-Jul-28 02:33N 47°39' W 003°22'4 4.2
2016-Jul-28 01:32N 47°44' W 003°22'0 0.0
2016-Jul-28 00:32N 47°44' W 003°22'6 5.9
2016-Jul-27 23:33N 47°38' W 003°23'8 7.6
2016-Jul-27 22:33N 47°31' W 003°28'2 2.4
2016-Jul-27 21:31N 47°30' W 003°31'5 4.1
2016-Jul-27 20:24N 47°25' W 003°33'2 2.7
2016-Jul-27 19:33N 47°24' W 003°31'5 0.6
2016-Jul-27 11:27N 47°20' W 003°28'1 1.4
2016-Jul-27 10:33N 47°19' W 003°26'1 1.4
2016-Jul-27 09:33N 47°20' W 003°26'1 0.2
2016-Jul-27 05:12N 47°20' W 003°27'2 3.5
2016-Jul-27 04:33N 47°21' W 003°30'4 4.4
2016-Jul-27 03:33N 47°19' W 003°36'3 2.9
2016-Jul-27 02:31N 47°17' W 003°40'3 3.2
2016-Jul-27 01:31N 47°15' W 003°43'4 3.2
2016-Jul-27 00:23N 47°13' W 003°48'2 2.3
2016-Jul-26 23:33N 47°13' W 003°46'6 4.2
2016-Jul-26 22:10N 47°17' W 003°39'3 4.9
2016-Jul-26 21:31N 47°18' W 003°35'6 2.5
2016-Jul-26 19:13N 47°20' W 003°27'2 3.5
2016-Jul-26 18:33N 47°21' W 003°31'3 2.7
2016-Jul-26 17:34N 47°23' W 003°30'3 2.9
2016-Jul-26 16:33N 47°25' W 003°34'3 3.0
2016-Jul-26 15:34N 47°28' W 003°33'7 7.4
2016-Jul-26 14:34N 47°34' W 003°27'8 7.7
2016-Jul-26 13:34N 47°41' W 003°22'  
2016-Jul-23 00:33N 47°44' W 003°22'7 6.6
2016-Jul-22 23:33N 47°37' W 003°22'7 6.9
2016-Jul-22 22:33N 47°31' W 003°25'7 6.5
2016-Jul-22 21:33N 47°25' W 003°29'3 3.3
2016-Jul-22 20:33N 47°28' W 003°32'3 3.5
2016-Jul-22 19:33N 47°31' W 003°32'3 3.4
2016-Jul-22 18:33N 47°34' W 003°30'8 7.8
2016-Jul-22 17:33N 47°40' W 003°22'4 0.1
2016-Jul-21 10:33N 47°44' W 003°22'0 0.0
2016-Jul-20 10:27N 47°44' W 003°22'  
Track history (hours):
 
Tides and Currents Weather Stations Pressure Air Temp Water Temp Dewpoint Dewpoint Depression Visibility Wind Speed Wind Dir Waves Ship Positions

F/V Cote D'ambre

Last reported at 2016-Jul-28 02:33 UTC. Time now 2016-Jul-28 02:55 UTC.
Position N 47°39' W 003°22'.

Length 16 m; draft 4 m.

Type: Fishing. MMSI: 227128800.

Date/timePositionNaut miles runAvg speedWind from/ knotsBaromVisibWave heightAir tempDewpointWater temp
2016-Jul-28 02:33N 47°39' W 003°22'4 4.2
2016-Jul-28 01:32N 47°44' W 003°22'0 0.0
2016-Jul-28 00:32N 47°44' W 003°22'6 5.9
2016-Jul-27 23:33N 47°38' W 003°23'8 7.6
2016-Jul-27 22:33N 47°31' W 003°28'2 2.4
2016-Jul-27 21:31N 47°30' W 003°31'5 4.1
2016-Jul-27 20:24N 47°25' W 003°33'2 2.7
2016-Jul-27 19:33N 47°24' W 003°31'5 0.6
2016-Jul-27 11:27N 47°20' W 003°28'1 1.4
2016-Jul-27 10:33N 47°19' W 003°26'1 1.4
2016-Jul-27 09:33N 47°20' W 003°26'1 0.2
2016-Jul-27 05:12N 47°20' W 003°27'2 3.5
2016-Jul-27 04:33N 47°21' W 003°30'4 4.4
2016-Jul-27 03:33N 47°19' W 003°36'3 2.9
2016-Jul-27 02:31N 47°17' W 003°40'3 3.2
2016-Jul-27 01:31N 47°15' W 003°43'4 3.2
2016-Jul-27 00:23N 47°13' W 003°48'2 2.3
2016-Jul-26 23:33N 47°13' W 003°46'6 4.2
2016-Jul-26 22:10N 47°17' W 003°39'3 4.9
2016-Jul-26 21:31N 47°18' W 003°35'6 2.5
2016-Jul-26 19:13N 47°20' W 003°27'2 3.5
2016-Jul-26 18:33N 47°21' W 003°31'3 2.7
2016-Jul-26 17:34N 47°23' W 003°30'3 2.9
2016-Jul-26 16:33N 47°25' W 003°34'3 3.0
2016-Jul-26 15:34N 47°28' W 003°33'7 7.4
2016-Jul-26 14:34N 47°34' W 003°27'8 7.7
2016-Jul-26 13:34N 47°41' W 003°22'  
2016-Jul-23 00:33N 47°44' W 003°22'7 6.6
2016-Jul-22 23:33N 47°37' W 003°22'7 6.9
2016-Jul-22 22:33N 47°31' W 003°25'7 6.5
2016-Jul-22 21:33N 47°25' W 003°29'3 3.3
2016-Jul-22 20:33N 47°28' W 003°32'3 3.5
2016-Jul-22 19:33N 47°31' W 003°32'3 3.4
2016-Jul-22 18:33N 47°34' W 003°30'8 7.8
2016-Jul-22 17:33N 47°40' W 003°22'4 0.1
2016-Jul-21 10:33N 47°44' W 003°22'0 0.0
2016-Jul-20 10:27N 47°44' W 003°22'  

Dump ship's entire track history